Terminal Aerodrome Forecast
Issued by NWS

Home | Current Version | Previous Version | Text Only | Print | Product List | Glossary On
Versions: 1 2 3 4 5 6 7 8 9 10 11 12 13 14 15 16 17
000
FTUS44 KLIX 251122
TAFGPT
TAF
KGPT 251122Z 2512/2612 23004KT 6SM BR FEW007 BKN030
     FM251400 23008KT P6SM SCT035
     FM251600 21007KT P6SM VCTS SCT035CB
      TEMPO 2517/2519 VRB15G25KT 1SM -TSRA OVC020CB
     FM252000 20004KT P6SM BKN050
     FM260400 20005KT P6SM SCT005 BKN010
     FM260800 20003KT 5SM BR BKN005=

USA.gov is the U.S. government's official web portal to all federal, state and local government web resources and services.